createdAt,value
2023-05-01T00:00:23.625Z,5.72
2023-05-01T00:02:57.572Z,5.97
2023-05-01T00:05:28.517Z,5.63
2023-05-01T00:07:59.270Z,5.85
2023-05-01T00:10:30.146Z,6.18
2023-05-01T00:13:03.945Z,5.45
2023-05-01T00:15:35.397Z,5.53
2023-05-01T00:18:06.445Z,5.32
2023-05-01T00:20:37.302Z,6.40
2023-05-01T00:23:08.974Z,6.60
2023-05-01T00:25:39.848Z,5.22
2023-05-01T00:28:13.326Z,6.28
2023-05-01T00:30:45.802Z,5.30
2023-05-01T00:33:16.756Z,5.35
2023-05-01T00:35:48.266Z,4.95
2023-05-01T00:38:19.144Z,4.20
2023-05-01T00:40:50.713Z,4.38
2023-05-01T00:43:24.207Z,5.03
2023-05-01T00:45:55.191Z,4.95
2023-05-01T00:48:26.287Z,4.95
2023-05-01T00:50:59.008Z,4.63
2023-05-01T00:53:30.208Z,4.70
2023-05-01T00:56:02.636Z,4.65
2023-05-01T00:58:36.423Z,4.90
2023-05-01T01:01:09.204Z,4.07
2023-05-01T01:03:40.372Z,3.95
2023-05-01T01:06:17.575Z,3.95
2023-05-01T01:09:08.089Z,4.10
2023-05-01T01:11:46.618Z,3.95
2023-05-01T01:14:25.623Z,3.70
2023-05-01T01:17:02.427Z,3.28
2023-05-01T01:20:06.823Z,3.20
2023-05-01T01:22:40.609Z,3.35
2023-05-01T01:25:45.828Z,2.88
2023-05-01T01:28:49.236Z,2.42
2023-05-01T01:31:24.196Z,2.83
2023-05-01T01:34:07.174Z,2.60
2023-05-01T01:36:52.980Z,2.85
2023-05-01T01:39:32.601Z,2.20
2023-05-01T01:42:04.139Z,2.30
2023-05-01T01:44:41.007Z,2.72
2023-05-01T01:47:15.775Z,2.90
2023-05-01T01:49:52.641Z,3.03
2023-05-01T01:52:25.358Z,3.53
2023-05-01T01:54:59.362Z,2.83
2023-05-01T01:57:32.204Z,2.45
2023-05-01T02:00:03.063Z,2.30
2023-05-01T02:02:45.436Z,2.63
2023-05-01T02:05:22.459Z,2.53
2023-05-01T02:10:27.448Z,1.90
2023-05-01T02:13:00.866Z,2.35
2023-05-01T02:15:33.285Z,2.38
2023-05-01T02:18:06.904Z,2.70
2023-05-01T02:20:41.931Z,2.50
2023-05-01T02:23:13.332Z,3.25
2023-05-01T02:25:45.419Z,3.50
2023-05-01T02:28:18.767Z,4.47
2023-05-01T02:30:49.684Z,4.00
2023-05-01T02:33:20.506Z,3.97
2023-05-01T02:35:54.244Z,3.58
2023-05-01T02:38:25.215Z,4.07
2023-05-01T02:41:00.701Z,4.15
2023-05-01T02:43:35.449Z,3.75
2023-05-01T02:46:07.960Z,3.63
2023-05-01T02:48:40.967Z,3.47
2023-05-01T02:51:15.129Z,3.20
2023-05-01T02:53:46.512Z,3.35
2023-05-01T02:56:24.002Z,3.00
2023-05-01T02:58:54.887Z,3.30
2023-05-01T03:01:27.375Z,3.22
2023-05-01T03:03:58.530Z,2.85
2023-05-01T03:06:32.145Z,3.50
2023-05-01T03:09:03.427Z,2.92
2023-05-01T03:11:34.250Z,3.67
2023-05-01T03:14:05.111Z,2.85
2023-05-01T03:16:36.231Z,2.95
2023-05-01T03:19:07.193Z,2.95
2023-05-01T03:21:40.560Z,3.40
2023-05-01T03:24:12.023Z,3.13
2023-05-01T03:26:43.207Z,2.63
2023-05-01T03:29:14.075Z,3.35
2023-05-01T03:31:45.008Z,3.50
2023-05-01T03:34:16.320Z,2.90
2023-05-01T03:36:50.132Z,2.60
2023-05-01T03:39:21.165Z,3.20
2023-05-01T03:42:18.534Z,3.60
2023-05-01T03:44:49.921Z,2.65
2023-05-01T03:47:22.340Z,3.28
2023-05-01T03:49:53.372Z,3.22
2023-05-01T03:52:26.891Z,3.05
2023-05-01T03:54:59.308Z,2.92
2023-05-01T03:57:38.313Z,3.00
2023-05-01T04:00:12.107Z,3.00
2023-05-01T04:02:51.169Z,3.40
2023-05-01T04:05:27.452Z,2.65
2023-05-01T04:08:07.598Z,3.35
2023-05-01T04:10:38.524Z,2.88
2023-05-01T04:13:09.422Z,2.97
2023-05-01T04:15:40.343Z,2.95
2023-05-01T04:18:11.326Z,2.90
2023-05-01T04:20:43.585Z,2.90
2023-05-01T04:23:17.022Z,3.20
2023-05-01T04:25:48.754Z,2.47
2023-05-01T04:28:22.239Z,3.25
2023-05-01T04:30:53.034Z,3.05
2023-05-01T04:33:23.941Z,3.35
2023-05-01T04:35:55.144Z,3.28
2023-05-01T04:38:29.278Z,3.38
2023-05-01T04:41:01.810Z,3.00
2023-05-01T04:43:32.979Z,3.13
2023-05-01T04:46:04.512Z,2.60
2023-05-01T04:48:35.377Z,3.20
2023-05-01T04:51:07.350Z,3.55
2023-05-01T04:53:41.361Z,3.17
2023-05-01T04:56:22.146Z,2.90
2023-05-01T04:58:56.485Z,2.60
2023-05-01T05:01:30.196Z,3.00
2023-05-01T05:04:01.823Z,2.42
2023-05-01T05:06:33.886Z,2.92
2023-05-01T05:09:07.742Z,3.05
2023-05-01T05:11:39.479Z,3.30
2023-05-01T05:14:15.356Z,3.72
2023-05-01T05:16:46.784Z,3.88
2023-05-01T05:19:17.974Z,2.95
2023-05-01T05:21:49.261Z,3.78
2023-05-01T05:24:23.517Z,2.78
2023-05-01T05:26:55.132Z,3.45
2023-05-01T05:29:26.000Z,2.92
2023-05-01T05:31:57.531Z,3.38
2023-05-01T05:34:28.466Z,3.70
2023-05-01T05:36:59.307Z,3.90
2023-05-01T05:39:33.169Z,3.30
2023-05-01T05:42:04.061Z,3.75
2023-05-01T05:44:36.366Z,4.32
2023-05-01T05:47:07.526Z,3.38
2023-05-01T05:49:38.413Z,3.95
2023-05-01T05:52:09.427Z,3.60
2023-05-01T05:54:43.891Z,3.97
2023-05-01T05:57:14.905Z,3.53
2023-05-01T05:59:51.842Z,4.03
2023-05-01T06:02:27.329Z,3.70
2023-05-01T06:04:58.439Z,3.95
2023-05-01T06:07:32.329Z,4.25
2023-05-01T06:10:05.974Z,3.70
2023-05-01T06:12:37.661Z,5.20
2023-05-01T06:15:15.978Z,4.18
2023-05-01T06:17:52.016Z,3.92
2023-05-01T06:20:23.048Z,3.63
2023-05-01T06:22:55.013Z,3.45
2023-05-01T06:25:34.141Z,4.05
2023-05-01T06:28:05.026Z,3.13
2023-05-01T06:30:37.595Z,3.58
2023-05-01T06:33:10.242Z,3.58
2023-05-01T06:35:43.657Z,3.80
2023-05-01T06:38:14.503Z,4.10
2023-05-01T06:40:48.389Z,2.95
2023-05-01T06:43:20.555Z,2.47
2023-05-01T06:45:51.728Z,2.13
2023-05-01T06:48:24.214Z,2.40
2023-05-01T06:50:55.076Z,4.80
2023-05-01T06:53:26.247Z,3.08
2023-05-01T06:55:59.767Z,2.75
2023-05-01T06:58:30.681Z,3.08
2023-05-01T07:01:02.119Z,2.20
2023-05-01T07:03:33.759Z,2.78
2023-05-01T07:06:04.935Z,2.47
2023-05-01T07:08:36.318Z,2.70
2023-05-01T07:11:10.900Z,2.42
2023-05-01T07:13:42.294Z,4.25
2023-05-01T07:16:13.085Z,2.30
2023-05-01T07:18:43.978Z,2.47
2023-05-01T07:21:14.921Z,2.30
2023-05-01T07:23:45.837Z,2.42
2023-05-01T07:26:20.027Z,2.50
2023-05-01T07:28:53.560Z,2.33
2023-05-01T07:31:25.571Z,2.08
2023-05-01T07:33:56.512Z,3.45
2023-05-01T07:36:27.585Z,2.20
2023-05-01T07:38:58.597Z,2.40
2023-05-01T07:41:32.189Z,2.47
2023-05-01T07:44:03.313Z,2.78
2023-05-01T07:46:34.968Z,2.40
2023-05-01T07:49:06.609Z,2.10
2023-05-01T07:51:37.613Z,2.72
2023-05-01T07:54:08.979Z,3.85
2023-05-01T07:56:44.369Z,3.47
2023-05-01T07:59:15.813Z,2.17
2023-05-01T08:01:46.720Z,2.53
2023-05-01T08:04:19.290Z,2.47
2023-05-01T08:06:50.430Z,2.40
2023-05-01T08:09:21.622Z,2.53
2023-05-01T08:11:55.091Z,2.38
2023-05-01T08:14:26.015Z,2.72
2023-05-01T08:16:57.346Z,2.47
2023-05-01T08:19:29.867Z,2.22
2023-05-01T08:22:00.903Z,2.55
2023-05-01T08:24:32.599Z,3.17
2023-05-01T08:27:06.262Z,2.58
2023-05-01T08:29:37.232Z,2.30
2023-05-01T08:32:08.267Z,2.50
2023-05-01T08:34:39.509Z,3.40
2023-05-01T08:37:10.292Z,2.22
2023-05-01T08:39:41.403Z,2.13
2023-05-01T08:42:16.237Z,2.60
2023-05-01T08:44:50.396Z,1.98
2023-05-01T08:47:22.640Z,2.25
2023-05-01T08:49:55.784Z,2.17
2023-05-01T08:52:29.754Z,1.80
2023-05-01T08:55:03.074Z,2.65
2023-05-01T08:57:41.323Z,1.98
2023-05-01T09:00:18.632Z,1.65
2023-05-01T09:02:52.440Z,2.20
2023-05-01T09:05:24.373Z,1.83
2023-05-01T09:07:55.243Z,1.90
2023-05-01T09:10:27.586Z,2.47
2023-05-01T09:13:07.398Z,2.22
2023-05-01T09:15:38.370Z,2.30
2023-05-01T09:18:11.973Z,2.22
2023-05-01T09:20:43.679Z,2.00
2023-05-01T09:23:15.471Z,1.70
2023-05-01T09:25:46.557Z,1.58
2023-05-01T09:28:22.729Z,1.50
2023-05-01T09:30:53.679Z,1.80
2023-05-01T09:33:24.601Z,1.60
2023-05-01T09:35:57.534Z,1.77
2023-05-01T09:38:29.976Z,2.05
2023-05-01T09:41:08.330Z,1.90
2023-05-01T09:43:42.183Z,1.75
2023-05-01T09:46:14.286Z,1.50
2023-05-01T09:48:55.406Z,2.67
2023-05-01T09:51:29.834Z,1.90
2023-05-01T09:54:02.573Z,1.60
2023-05-01T09:56:35.144Z,2.08
2023-05-01T09:59:23.056Z,1.50
2023-05-01T10:01:54.145Z,1.30
2023-05-01T10:04:34.462Z,1.30
2023-05-01T10:07:17.530Z,1.40
2023-05-01T10:09:48.597Z,1.08
2023-05-01T10:12:28.438Z,1.55
2023-05-01T10:15:10.805Z,1.40
2023-05-01T10:17:48.682Z,1.10
2023-05-01T10:20:20.075Z,1.20
2023-05-01T10:22:51.091Z,1.35
2023-05-01T10:25:26.089Z,1.00
2023-05-01T10:27:58.481Z,1.60
2023-05-01T10:30:33.028Z,1.75
2023-05-01T10:33:04.056Z,1.15
2023-05-01T10:35:39.831Z,1.98
2023-05-01T10:38:12.614Z,1.77
2023-05-01T10:40:51.707Z,1.40
2023-05-01T10:43:26.715Z,1.30
2023-05-01T10:46:35.049Z,1.40
2023-05-01T10:49:06.157Z,1.80
2023-05-01T10:51:37.342Z,1.60
2023-05-01T10:54:29.357Z,1.30
2023-05-01T10:57:01.872Z,2.00
2023-05-01T11:00:13.233Z,1.67
2023-05-01T11:02:46.874Z,1.33
2023-05-01T11:05:21.681Z,1.70
2023-05-01T11:08:32.520Z,1.77
2023-05-01T11:11:41.270Z,1.63
2023-05-01T11:14:12.604Z,1.80
2023-05-01T11:16:50.477Z,1.40
2023-05-01T11:19:52.862Z,1.45
2023-05-01T11:22:26.377Z,1.30
2023-05-01T11:24:57.993Z,1.58
2023-05-01T11:27:30.398Z,1.45
2023-05-01T11:30:02.706Z,1.50
2023-05-01T11:32:33.985Z,1.52
2023-05-01T11:35:08.503Z,1.20
2023-05-01T11:37:48.915Z,1.70
2023-05-01T11:40:29.935Z,2.33
2023-05-01T11:43:05.206Z,1.20
2023-05-01T11:45:36.997Z,1.60
2023-05-01T11:48:17.277Z,1.27
2023-05-01T11:50:51.044Z,1.27
2023-05-01T11:53:22.557Z,1.65
2023-05-01T11:55:53.822Z,1.60
2023-05-01T11:58:39.745Z,1.00
2023-05-01T12:01:13.282Z,1.40
2023-05-01T12:03:47.839Z,1.30
2023-05-01T12:06:21.710Z,1.02
2023-05-01T12:08:53.958Z,1.38
2023-05-01T12:11:25.119Z,1.35
2023-05-01T12:13:56.402Z,1.23
2023-05-01T12:16:28.686Z,1.02
2023-05-01T12:18:59.774Z,1.30
2023-05-01T12:21:33.480Z,1.05
2023-05-01T12:24:12.501Z,1.00
2023-05-01T12:26:43.560Z,1.00
2023-05-01T12:29:14.643Z,0.90
2023-05-01T12:31:51.014Z,1.20
2023-05-01T12:34:21.966Z,1.30
2023-05-01T12:36:59.521Z,1.13
2023-05-01T12:39:39.715Z,1.20
2023-05-01T12:42:17.001Z,1.17
2023-05-01T12:44:50.360Z,1.20
2023-05-01T12:47:21.891Z,1.20
2023-05-01T12:50:05.795Z,1.00
2023-05-01T12:52:39.362Z,1.10
2023-05-01T12:55:12.932Z,1.13
2023-05-01T12:57:56.367Z,1.00
2023-05-01T13:00:27.486Z,1.00
2023-05-01T13:03:06.750Z,1.30
2023-05-01T13:05:37.822Z,1.10
2023-05-01T13:08:11.616Z,1.05
2023-05-01T13:10:43.414Z,1.05
2023-05-01T13:13:14.457Z,1.13
2023-05-01T13:15:46.350Z,1.50
2023-05-01T13:18:17.551Z,1.30
2023-05-01T13:20:48.606Z,1.08
2023-05-01T13:23:23.263Z,1.10
2023-05-01T13:26:00.191Z,1.38
2023-05-01T13:31:04.383Z,1.27
2023-05-01T13:33:39.508Z,1.20
2023-05-01T13:36:24.397Z,1.20
2023-05-01T13:39:02.205Z,1.50
2023-05-01T13:41:36.903Z,1.83
2023-05-01T13:44:10.486Z,1.40
2023-05-01T13:46:45.597Z,1.13
2023-05-01T13:49:24.019Z,1.55
2023-05-01T13:51:56.774Z,1.48
2023-05-01T13:54:30.467Z,1.40
2023-05-01T13:57:01.488Z,1.88
2023-05-01T13:59:40.171Z,1.27
2023-05-01T14:02:23.170Z,1.40
2023-05-01T14:04:54.370Z,0.82
2023-05-01T14:07:27.031Z,1.00
2023-05-01T14:10:02.788Z,1.20
2023-05-01T14:12:35.394Z,1.35
2023-05-01T14:15:07.386Z,1.50
2023-05-01T14:17:39.366Z,1.30
2023-05-01T14:20:11.963Z,1.10
2023-05-01T14:22:47.346Z,1.58
2023-05-01T14:25:31.627Z,1.20
2023-05-01T14:28:04.456Z,1.20
2023-05-01T14:30:39.111Z,1.10
2023-05-01T14:33:12.773Z,0.80
2023-05-01T14:35:53.149Z,1.27
2023-05-01T14:38:25.855Z,1.40
2023-05-01T14:41:01.972Z,1.63
2023-05-01T14:43:33.397Z,1.60
2023-05-01T14:46:04.469Z,1.50
2023-05-01T14:48:39.585Z,1.63
2023-05-01T14:51:14.132Z,1.33
2023-05-01T14:56:21.337Z,1.38
2023-05-01T14:58:52.894Z,1.38
2023-05-01T15:01:23.940Z,1.55
2023-05-01T15:03:55.083Z,1.63
2023-05-01T15:06:29.344Z,2.03
2023-05-01T15:09:01.251Z,1.42
2023-05-01T15:11:35.142Z,1.50
2023-05-01T15:14:06.281Z,1.50
2023-05-01T15:16:37.869Z,1.85
2023-05-01T15:19:12.091Z,1.73
2023-05-01T15:21:45.096Z,1.23
2023-05-01T15:24:26.549Z,1.45
2023-05-01T15:27:03.470Z,1.65
2023-05-01T15:29:43.703Z,1.30
2023-05-01T15:32:15.748Z,1.17
2023-05-01T15:34:47.109Z,1.50
2023-05-01T15:37:18.212Z,1.20
2023-05-01T15:39:49.346Z,1.60
2023-05-01T15:42:31.660Z,1.50
2023-05-01T15:45:15.247Z,1.63
2023-05-01T15:47:46.798Z,1.70
2023-05-01T15:50:38.769Z,1.38
2023-05-01T15:53:17.336Z,1.48
2023-05-01T15:55:49.413Z,1.60
2023-05-01T15:58:27.032Z,1.80
2023-05-01T16:01:01.133Z,1.40
2023-05-01T16:03:32.888Z,1.50
2023-05-01T16:06:04.079Z,1.50
2023-05-01T16:08:37.334Z,1.52
2023-05-01T16:11:23.677Z,1.83
2023-05-01T16:14:13.839Z,1.50
2023-05-01T16:16:57.763Z,1.67
2023-05-01T16:19:32.407Z,1.70
2023-05-01T16:22:07.167Z,1.70
2023-05-01T16:24:39.071Z,1.50
2023-05-01T16:27:10.372Z,1.73
2023-05-01T16:29:44.223Z,1.25
2023-05-01T16:32:29.011Z,1.52
2023-05-01T16:35:00.314Z,2.30
2023-05-01T16:37:42.345Z,1.40
2023-05-01T16:40:18.777Z,1.67
2023-05-01T16:42:54.781Z,1.55
2023-05-01T16:45:38.559Z,1.35
2023-05-01T16:48:12.495Z,1.60
2023-05-01T16:50:44.835Z,1.88
2023-05-01T16:53:15.734Z,1.65
2023-05-01T16:55:47.226Z,1.40
2023-05-01T16:58:18.257Z,1.83
2023-05-01T17:00:51.778Z,1.85
2023-05-01T17:03:22.721Z,1.63
2023-05-01T17:05:53.724Z,1.52
2023-05-01T17:08:24.561Z,2.00
2023-05-01T17:10:55.493Z,1.52
2023-05-01T17:13:26.549Z,1.33
2023-05-01T17:16:00.741Z,1.65
2023-05-01T17:18:31.710Z,1.77
2023-05-01T17:21:02.617Z,1.30
2023-05-01T17:23:34.004Z,1.65
2023-05-01T17:26:05.794Z,1.40
2023-05-01T17:28:37.179Z,1.50
2023-05-01T17:31:11.064Z,2.05
2023-05-01T17:33:42.097Z,1.35
2023-05-01T17:36:13.108Z,1.60
2023-05-01T17:38:44.146Z,1.50
2023-05-01T17:41:15.162Z,1.30
2023-05-01T17:43:46.859Z,1.85
2023-05-01T17:46:20.582Z,1.58
2023-05-01T17:48:51.633Z,1.30
2023-05-01T17:51:22.870Z,1.45
2023-05-01T17:53:53.850Z,1.77
2023-05-01T17:56:24.905Z,1.73
2023-05-01T17:58:55.832Z,1.73
2023-05-01T18:01:29.576Z,1.60
2023-05-01T18:04:00.597Z,1.27
2023-05-01T18:06:32.109Z,1.30
2023-05-01T18:09:03.925Z,1.20
2023-05-01T18:11:34.898Z,1.20
2023-05-01T18:14:06.048Z,1.38
2023-05-01T18:16:39.685Z,1.45
2023-05-01T18:19:10.769Z,1.58
2023-05-01T18:21:41.889Z,1.40
2023-05-01T18:24:12.986Z,1.33
2023-05-01T18:26:44.001Z,1.40
2023-05-01T18:29:15.768Z,1.48
2023-05-01T18:31:49.326Z,1.15
2023-05-01T18:34:20.274Z,1.48
2023-05-01T18:36:52.645Z,0.85
2023-05-01T18:39:24.361Z,1.05
2023-05-01T18:41:57.344Z,1.38
2023-05-01T18:44:28.364Z,1.80
2023-05-01T18:47:01.930Z,1.05
2023-05-01T18:49:33.462Z,1.05
2023-05-01T18:52:04.488Z,1.33
2023-05-01T18:54:35.426Z,1.33
2023-05-01T18:57:06.497Z,1.08
2023-05-01T18:59:37.444Z,0.82
2023-05-01T19:02:11.171Z,1.10
2023-05-01T19:04:56.703Z,0.90
2023-05-01T19:07:28.757Z,1.15
2023-05-01T19:10:00.747Z,1.10
2023-05-01T19:12:36.848Z,0.80
2023-05-01T19:15:16.006Z,1.65
2023-05-01T19:17:56.980Z,0.90
2023-05-01T19:20:37.441Z,1.30
2023-05-01T19:23:10.547Z,0.93
2023-05-01T19:25:42.565Z,1.00
2023-05-01T19:28:16.253Z,0.88
2023-05-01T19:30:50.981Z,1.00
2023-05-01T19:33:32.887Z,1.00
2023-05-01T19:36:28.810Z,1.00
2023-05-01T19:39:11.508Z,0.80
2023-05-01T19:45:17.742Z,1.00
2023-05-01T19:48:07.358Z,1.40
2023-05-01T19:50:59.771Z,1.65
2023-05-01T19:53:56.276Z,1.20
2023-05-01T19:56:49.480Z,1.23
2023-05-01T19:59:40.881Z,0.88
2023-05-01T20:02:29.037Z,1.40
2023-05-01T20:08:10.950Z,0.98
2023-05-01T20:10:43.443Z,1.05
2023-05-01T20:13:16.512Z,1.10
2023-05-01T20:16:04.616Z,1.10
2023-05-01T20:18:40.622Z,0.75
2023-05-01T20:21:11.683Z,1.40
2023-05-01T20:23:46.824Z,1.25
2023-05-01T20:26:22.392Z,1.20
2023-05-01T20:29:00.525Z,1.23
2023-05-01T20:31:36.821Z,1.50
2023-05-01T20:34:11.615Z,1.60
2023-05-01T20:36:43.461Z,1.10
2023-05-01T20:39:17.920Z,1.02
2023-05-01T20:41:49.616Z,1.55
2023-05-01T20:44:22.391Z,1.30
2023-05-01T20:46:53.502Z,1.20
2023-05-01T20:49:42.915Z,1.00
2023-05-01T20:52:17.753Z,1.10
2023-05-01T20:54:57.234Z,1.30
2023-05-01T20:57:36.821Z,1.00
2023-05-01T21:00:15.576Z,0.93
2023-05-01T21:02:46.807Z,1.23
2023-05-01T21:05:21.520Z,1.05
2023-05-01T21:07:52.660Z,1.20
2023-05-01T21:10:26.244Z,1.02
2023-05-01T21:12:58.374Z,1.73
2023-05-01T21:15:32.108Z,1.50
2023-05-01T21:18:05.891Z,1.38
2023-05-01T21:20:39.056Z,1.83
2023-05-01T21:23:10.611Z,1.08
2023-05-01T21:25:44.606Z,1.33
2023-05-01T21:28:18.987Z,1.73
2023-05-01T21:30:52.937Z,1.45
2023-05-01T21:33:23.904Z,1.40
2023-05-01T21:35:55.526Z,1.52
2023-05-01T21:38:26.673Z,1.40
2023-05-01T21:41:01.062Z,2.20
2023-05-01T21:43:34.559Z,1.63
2023-05-01T21:46:05.547Z,1.77
2023-05-01T21:48:38.697Z,1.30
2023-05-01T21:51:10.009Z,1.60
2023-05-01T21:53:44.284Z,1.20
2023-05-01T21:56:18.441Z,1.50
2023-05-01T21:58:49.360Z,1.45
2023-05-01T22:01:26.972Z,1.30
2023-05-01T22:03:58.054Z,1.70
2023-05-01T22:06:30.456Z,1.60
2023-05-01T22:09:01.421Z,1.50
2023-05-01T22:11:35.205Z,1.50
2023-05-01T22:14:06.665Z,1.85
2023-05-01T22:16:46.225Z,1.85
2023-05-01T22:19:17.472Z,1.60
2023-05-01T22:21:48.303Z,1.70
2023-05-01T22:24:19.226Z,1.70
2023-05-01T22:26:52.694Z,1.65
2023-05-01T22:29:23.810Z,1.52
2023-05-01T22:31:55.265Z,1.70
2023-05-01T22:34:26.423Z,2.25
2023-05-01T22:36:57.706Z,1.63
2023-05-01T22:39:30.124Z,1.67
2023-05-01T22:42:04.245Z,1.73
2023-05-01T22:44:35.284Z,1.70
2023-05-01T22:47:06.740Z,1.70
2023-05-01T22:49:37.681Z,1.70
2023-05-01T22:52:09.178Z,1.77
2023-05-01T22:54:40.063Z,1.88
2023-05-01T22:57:14.077Z,1.52
2023-05-01T22:59:45.949Z,1.88
2023-05-01T23:02:19.166Z,1.75
2023-05-01T23:04:51.571Z,1.73
2023-05-01T23:07:22.622Z,1.60
2023-05-01T23:09:53.728Z,2.08
2023-05-01T23:12:28.047Z,1.50
2023-05-01T23:14:59.135Z,1.77
2023-05-01T23:17:37.948Z,1.85
2023-05-01T23:20:16.075Z,1.95
2023-05-01T23:22:47.215Z,1.50
2023-05-01T23:25:23.824Z,1.60
2023-05-01T23:27:59.452Z,1.90
2023-05-01T23:30:31.052Z,1.90
2023-05-01T23:33:02.512Z,1.92
2023-05-01T23:35:33.580Z,2.08
2023-05-01T23:38:04.544Z,1.50
2023-05-01T23:40:37.385Z,1.70
2023-05-01T23:43:11.213Z,1.50
2023-05-01T23:45:43.039Z,1.50
2023-05-01T23:48:14.855Z,1.45
2023-05-01T23:50:45.908Z,2.00
2023-05-01T23:53:17.057Z,1.45
2023-05-01T23:55:48.597Z,1.50
2023-05-01T23:58:22.084Z,1.35
